Latest Coastal Weather Observations for Hobart Airport

IDT60701

Issued at 2:32 pm EDT Monday 2 March 2015 (issued every 10 minutes, with the page automatically refreshed every 10 minutes)

About coastal observations | Map of coastal stations | Coastal observations for TAS | Marine services | Other Formats
Station Details ID: 094008 Name: HOBART AIRPORT Lat: -42.83 Lon: 147.50 Height: 4.0 m
Data from the previous 72 hours. | See also: Recent months at Hobart Airport
Date/Time
EDT
Temp

°C
Wind Pressure Rain
since 9am
mm
Weather Cloud Vis
km
Sea
Height
m
Swell
Dir
 
Speed
knots
Gust
knots
hPa Trend Height
m
Period
s
Dir
02/02:00pm 17.9 S 10 14 1013.6 - 0.0 - Mostly clear 10 - - - -
02/01:30pm 17.8 SSE 9 11 1014.1 - 0.0 - Mostly clear 10 - - - -
02/01:00pm 17.1 S 6 9 1014.8 - 0.0 - Mostly clear 10 - - - -
02/12:30pm 17.3 SE 8 12 1015.8 - 0.0 - Mostly clear 10 - - - -
02/12:00pm 16.0 N 4 7 1016.8 F 0.0 Haze Mostly cloudy 30 - - - -
02/11:30am 15.0 NNW 4 6 1017.6 - 0.0 - Mostly clear 10 - - - -
02/11:00am 14.3 SSW 4 6 1018.1 - 0.0 - Mostly clear 10 - - - -
02/10:30am 13.7 W 5 7 1018.5 - 0.0 - Mostly clear 10 - - - -
02/10:00am 12.4 WNW 6 9 1018.6 - 0.0 - Mostly clear 10 - - - -
02/09:30am 12.0 NW 6 8 1018.9 - 0.0 - Mostly cloudy 10 - - - -
02/09:00am 11.2 NW 6 8 1019.0 F 0.0 Haze Mostly cloudy 30 - - - -
02/08:30am 9.9 NW 7 9 1019.2 - 0.0 - Mostly clear 10 - - - -
02/08:00am 9.2 NNW 4 6 1019.1 - 0.0 - Mostly cloudy 10 - - - -
02/07:30am 8.1 W 4 5 1018.9 - 0.0 - Mostly cloudy 10 - - - -
02/07:00am 7.8 NW 6 7 1018.7 - 0.0 - Mostly cloudy 10 - - - -
02/06:30am 7.9 NNW 5 7 1018.7 - 0.0 - Mostly cloudy 10 - - - -
02/06:00am 7.0 NW 3 5 1018.6 R 0.0 Haze Mostly cloudy 30 - - - -
02/05:30am 5.9 WNW 5 6 1018.7 - 0.0 - Mostly clear 10 - - - -
02/05:00am 6.3 NW 5 7 1018.4 - 0.0 - Mostly clear 10 - - - -
02/04:30am 7.3 NW 4 6 1018.5 - 0.0 - Mostly clear 10 - - - -
02/04:00am 7.0 WNW 4 5 1018.5 - 0.0 - Mostly clear 10 - - - -
02/03:30am 6.0 CALM 0 2 1018.4 - 0.0 - Mostly clear 10 - - - -
02/03:00am 7.7 WNW 2 5 1018.1 R 0.0 Haze Mostly clear 30 - - - -
02/02:30am 8.6 NNW 3 4 1018.0 - 0.0 - Mostly clear 10 - - - -
02/02:00am 9.3 CALM 0 0 1017.8 - 0.0 - Mostly clear 10 - - - -
02/01:30am 8.7 NW 1 3 1018.1 - 0.0 - Mostly clear 10 - - - -
02/01:00am 8.1 CALM 0 0 1018.1 - 0.0 - Mostly clear 10 - - - -
02/12:30am 7.8 CALM 0 0 1017.8 - 0.0 - Mostly clear 10 - - - -
 
Date/Time
EDT
Temp

°C
Wind Pressure Rain
since 9am
mm
Weather Cloud Vis
km
Sea
Height
m
Swell
Dir
 
Speed
knots
Gust
knots
hPa Trend Height
m
Period
s
Dir
01/11:30pm 10.7 WSW 5 6 1017.3 - 0.0 - Mostly clear 10 - - - -
01/11:00pm 11.2 SSW 5 5 1017.4 - 0.0 - Mostly clear 10 - - - -
01/10:30pm 11.9 WNW 1 3 1017.6 - 0.0 - Mostly clear 10 - - - -
01/10:00pm 12.3 S 3 5 1017.3 - 0.0 - Cloudy 10 - - - -
01/09:30pm 12.0 SE 3 6 1017.0 - 0.0 - Partly cloudy 10 - - - -
01/09:00pm 13.6 S 6 9 1016.5 R 0.0 Fine Partly cloudy 35 - - - -
01/08:30pm 13.9 SW 9 14 1015.6 - 0.0 - Mostly clear 10 - - - -
01/08:00pm 14.9 SW 11 15 1015.2 - 0.0 - Mostly clear 10 - - - -
01/07:30pm 15.4 SW 12 16 1014.4 - 0.0 - Mostly clear 10 - - - -
01/07:00pm 15.6 S 13 16 1013.8 - 0.0 - Mostly clear 10 - - - -
01/06:30pm 15.5 SSW 16 19 1013.4 - 0.0 - Mostly clear 10 - - - -
01/06:12pm 16.4 S 16 26 1013.3 - 0.0 - Mostly clear 10 - - - -
01/06:00pm 16.9 SSW 12 17 1013.0 R 0.0 Fine Mostly clear 40 - - - -
01/05:30pm 16.6 S 13 17 1012.4 - 0.0 - Mostly clear 10 - - - -
01/05:00pm 16.4 SSW 15 21 1012.2 - 0.0 - Mostly clear 10 - - - -
01/04:30pm 16.3 S 11 16 1012.0 - 0.0 - Partly cloudy 10 - - - -
01/04:00pm 16.9 SSW 13 19 1011.8 - 0.0 - Partly cloudy 10 - - - -
01/03:30pm 17.8 SSW 13 18 1011.3 - 0.0 - Mostly clear 10 - - - -
01/03:00pm 16.4 SW 11 19 1011.0 R 0.0 Showers Mostly cloudy 25 - - - -
01/02:30pm 15.9 SSW 12 17 1010.5 - 0.0 Showers Partly cloudy 10 - - - -
01/02:00pm 17.9 SW 14 20 1009.8 - 0.0 - Partly cloudy 10 - - - -
01/01:30pm 19.5 SW 13 20 1009.4 - 0.0 - Partly cloudy 10 - - - -
01/01:00pm 18.3 WSW 11 20 1009.1 - 0.0 - Partly cloudy 10 - - - -
01/12:30pm 17.7 SW 11 17 1009.0 - 0.0 - Partly cloudy 10 - - - -
01/12:00pm 17.8 SW 12 19 1008.7 R 0.0 Fine Partly cloudy 40 - - - -
01/11:30am 17.1 SW 12 16 1008.4 - 0.0 - Partly cloudy 10 - - - -
01/11:00am 16.5 SW 14 20 1007.9 - 0.0 - Mostly clear 10 - - - -
01/10:30am 16.5 SW 13 20 1007.4 - 0.0 - Mostly clear 10 - - - -
01/10:00am 17.0 WSW 14 19 1006.8 - 0.0 - Mostly clear 10 - - - -
01/09:30am 16.2 WSW 11 17 1006.2 - 0.0 - Mostly clear 10 - - - -
01/09:00am 16.2 WSW 13 22 1005.7 R 1.2 Distant precip. Partly cloudy 40 - - - -
01/08:30am 15.1 WSW 10 16 1004.9 - 1.2 - Mostly clear 10 - - - -
01/08:00am 13.6 W 7 8 1004.4 - 1.2 - Mostly clear 10 - - - -
01/07:30am 14.0 WNW 13 16 1003.5 - 1.2 - Mostly clear 10 - - - -
01/07:00am 14.7 W 9 13 1002.7 - 1.2 - Mostly clear 10 - - - -
01/06:30am 14.7 W 10 14 1002.2 - 1.2 - Mostly clear 10 - - - -
01/06:00am 15.1 WNW 11 15 1001.5 R 1.2 Fine Partly cloudy 40 - - - -
01/05:30am 15.3 WNW 14 19 1001.1 - 1.2 - Partly cloudy 10 - - - -
01/05:00am 15.9 WNW 11 16 1001.1 - 1.2 - Mostly clear 10 - - - -
01/04:30am 16.3 WNW 15 21 1000.8 - 1.2 - Mostly clear 10 - - - -
01/04:23am 16.5 W 15 26 1000.7 - 1.2 - Mostly clear 10 - - - -
01/04:00am 15.8 WNW 12 19 1000.7 - 1.2 - Mostly clear 10 - - - -
01/03:30am 16.3 WNW 10 16 1000.4 - 1.2 - Mostly clear 10 - - - -
01/03:00am 16.6 WNW 7 10 1000.3 R 1.2 Fine Mostly clear 40 - - - -
01/02:30am 16.7 WNW 10 14 999.9 - 1.2 - Mostly clear 10 - - - -
01/02:00am 17.0 WNW 10 17 999.4 - 1.2 - Mostly clear 10 - - - -
01/01:30am 17.7 NW 13 19 999.2 - 1.2 - Mostly clear 10 - - - -
01/01:00am 17.9 WNW 13 17 999.2 - 1.2 - Mostly clear 10 - - - -
01/12:30am 18.4 WNW 15 19 998.8 - 1.2 - Mostly clear 10 - - - -
01/12:00am 19.2 NW 13 17 998.8 R 1.2 Fine Mostly clear 40 - - - -
 
Date/Time
EDT
Temp

°C
Wind Pressure Rain
since 9am
mm
Weather Cloud Vis
km
Sea
Height
m
Swell
Dir
 
Speed
knots
Gust
knots
hPa Trend Height
m
Period
s
Dir
28/11:30pm 19.3 NNW 9 13 998.3 - 1.2 - Mostly clear 10 - - - -
28/11:00pm 19.7 NNW 9 11 998.3 - 1.2 - Mostly clear 10 - - - -
28/10:30pm 21.1 NNW 10 17 998.5 - 1.2 - Mostly clear 10 - - - -
28/10:00pm 20.2 N 9 13 998.1 - 1.2 - Mostly clear 10 - - - -
28/09:30pm 20.4 N 7 12 997.5 - 1.2 - Mostly clear 10 - - - -
28/09:00pm 20.4 N 7 10 997.1 F 1.2 Fine Mostly cloudy 40 - - - -
28/08:30pm 22.0 NW 13 17 996.9 - 1.2 - Mostly clear 10 - - - -
28/08:00pm 22.3 NW 7 13 996.7 - 1.2 - Mostly clear 10 - - - -
28/07:30pm 21.6 N 5 7 995.9 - 1.2 - Mostly clear 10 - - - -
28/07:00pm 22.4 NNE 7 11 996.4 - 1.2 - Mostly clear 10 - - - -
28/06:30pm 21.8 N 7 10 996.8 - 1.2 - Mostly clear 10 - - - -
28/06:00pm 21.8 N 8 12 996.8 F 1.2 Fine Mostly cloudy 40 - - - -
28/05:30pm 21.7 N 13 18 997.0 - 1.2 - Mostly clear 10 - - - -
28/05:00pm 21.8 NNW 7 14 997.5 - 1.2 - Mostly clear 10 - - - -
28/04:30pm 20.9 NW 7 10 997.8 - 1.2 - Partly cloudy 10 - - - -
28/04:00pm 20.9 NW 8 10 998.2 - 1.2 - Mostly clear 10 - - - -
28/03:30pm 20.6 WNW 9 10 999.2 - 1.2 - Mostly clear 10 - - - -
28/03:00pm 20.4 NW 8 12 999.6 F 1.2 Distant precip. Mostly cloudy 30 - - - -
28/02:30pm 19.6 N 8 13 1000.3 - 1.2 - Mostly clear 10 - - - -
28/02:00pm 19.1 N 9 14 1000.9 - 1.2 - Mostly clear 10 - - - -
28/01:30pm 17.4 N 8 14 1001.4 - 1.2 - Mostly clear 10 - - - -
28/01:00pm 15.8 NNE 7 10 1001.8 - 1.2 - Mostly clear 10 - - - -
28/12:30pm 15.7 N 10 15 1002.3 - 1.0 Rain Mostly clear 10 - - - -
28/12:00pm 16.9 NNW 11 18 1002.6 F 0.0 Rain Mostly cloudy 12 - - - -
28/11:30am 18.8 N 11 16 1002.7 - 0.0 Rain Mostly clear 10 - - - -
28/11:00am 18.5 N 12 19 1002.9 - 0.0 - Mostly clear 10 - - - -
28/10:30am 19.0 N 10 17 1003.2 - 0.0 - Mostly clear 10 - - - -
28/10:00am 16.7 NNE 7 10 1003.7 - 0.0 - Mostly clear 10 - - - -
28/09:30am 16.2 NNE 6 8 1004.5 - 0.0 - Mostly clear 10 - - - -
28/09:00am 15.4 N 6 8 1005.2 F 0.0 Fine Partly cloudy 40 - - - -
28/08:30am 14.6 NNE 5 6 1005.3 - 0.0 - Mostly clear 10 - - - -
28/08:00am 14.2 NNE 5 7 1005.7 - 0.0 - Partly cloudy 10 - - - -
28/07:30am 13.8 NE 7 9 1005.8 - 0.0 - Partly cloudy 10 - - - -
28/07:00am 13.3 NNE 6 8 1006.5 - 0.0 - Mostly cloudy 10 - - - -
28/06:30am 13.0 NW 1 3 1006.9 - 0.0 - Mostly cloudy 10 - - - -
28/06:00am 13.2 NNE 4 5 1007.1 F 0.0 Haze Mostly cloudy 30 - - - -
28/05:30am 13.2 CALM 0 2 1007.4 - 0.0 - Mostly cloudy 10 - - - -
28/05:00am 13.4 CALM 0 0 1007.8 - 0.0 - Mostly cloudy 10 - - - -
28/04:30am 13.1 NW 3 4 1008.2 - 0.0 - Mostly cloudy 10 - - - -
28/04:00am 12.9 CALM 0 0 1008.5 - 0.0 - Mostly clear 10 - - - -
28/03:30am 12.9 CALM 0 0 1009.2 - 0.0 - Mostly clear 10 - - - -
28/03:00am 13.0 NNE 3 5 1009.4 F 0.0 Haze Mostly cloudy 30 - - - -
28/02:30am 12.8 SSW 3 4 1009.5 - 0.0 - Cloudy 10 - - - -
28/02:00am 13.1 SSW 6 7 1009.9 - 0.0 - Mostly cloudy 10 - - - -
28/01:30am 13.1 SW 5 6 1010.3 - 0.0 - Mostly cloudy 10 - - - -
28/01:00am 13.5 SW 5 6 1010.5 - 0.0 - Mostly cloudy 10 - - - -
28/12:30am 13.5 SSW 7 9 1010.7 - 0.0 - Cloudy 10 - - - -
28/12:00am 13.7 SSW 6 8 1011.0 F 0.0 Haze Mostly cloudy 30 - - - -
 
Date/Time
EDT
Temp

°C
Wind Pressure Rain
since 9am
mm
Weather Cloud Vis
km
Sea
Height
m
Swell
Dir
 
Speed
knots
Gust
knots
hPa Trend Height
m
Period
s
Dir
27/11:30pm 13.7 SW 7 8 1011.2 - 0.0 - Mostly clear 10 - - - -
27/11:00pm 14.1 SSW 7 9 1011.0 - 0.0 - Mostly cloudy 10 - - - -
27/10:30pm 14.1 SSW 7 9 1011.2 - 0.0 - Mostly cloudy 10 - - - -
27/10:00pm 14.2 S 9 12 1011.2 - 0.0 - Mostly cloudy 10 - - - -
27/09:30pm 14.2 S 10 15 1011.0 - 0.0 - Mostly cloudy 10 - - - -
27/09:00pm 14.6 S 13 17 1010.8 F 0.0 Haze Mostly cloudy 25 - - - -
27/08:30pm 14.7 S 13 18 1010.6 - 0.0 - Mostly clear 10 - - - -
27/08:00pm 14.7 S 12 17 1010.5 - 0.0 - Partly cloudy 10 - - - -
27/07:30pm 14.8 S 14 17 1010.0 - 0.0 - Mostly clear 10 - - - -
27/07:00pm 15.2 SSW 12 18 1009.9 - 0.0 - Mostly clear 10 - - - -
27/06:30pm 15.4 S 14 21 1009.8 - 0.0 - Mostly clear 10 - - - -
27/06:00pm 15.8 SSW 14 20 1009.8 R 0.0 Haze Mostly cloudy 25 - - - -
27/05:30pm 16.3 S 17 23 1009.4 - 0.0 - Mostly clear 10 - - - -
27/05:00pm 17.7 SSE 11 15 1008.6 - 0.0 - Mostly clear 10 - - - -
27/04:30pm 17.5 SE 10 14 1008.3 - 0.0 - Mostly clear 10 - - - -
27/04:00pm 17.5 SSE 9 12 1008.7 - 0.0 - Mostly clear 10 - - - -
27/03:30pm 17.6 SE 9 13 1008.9 - 0.0 - Mostly clear 10 - - - -
27/03:00pm 17.6 SE 8 12 1008.9 R 0.0 Haze Mostly cloudy 25 - - - -

Other Formats:

Comma delimited format used in spreadsheet applications
http://www.bom.gov.au/fwo/IDT60701/IDT60701.94975.axf

JavaScript Object Notation format (JSON) in row-major order
http://www.bom.gov.au/fwo/IDT60701/IDT60701.94975.json